sensor_id;sensor_type;location;lat;lon;timestamp;P1;durP1;ratioP1;P2;durP2;ratioP2
48859;SDS011;34679;51.436;-2.518;2023-07-29T00:01:43;5.32;;;2.65;;
48859;SDS011;34679;51.436;-2.518;2023-07-29T00:04:09;6.45;;;2.65;;
48859;SDS011;34679;51.436;-2.518;2023-07-29T00:06:35;6.32;;;2.38;;
48859;SDS011;34679;51.436;-2.518;2023-07-29T00:09:01;9.60;;;2.70;;
48859;SDS011;34679;51.436;-2.518;2023-07-29T00:11:27;4.43;;;2.80;;
48859;SDS011;34679;51.436;-2.518;2023-07-29T00:13:53;10.70;;;2.40;;
48859;SDS011;34679;51.436;-2.518;2023-07-29T00:16:19;3.03;;;2.00;;
48859;SDS011;34679;51.436;-2.518;2023-07-29T00:18:48;5.38;;;2.60;;
48859;SDS011;34679;51.436;-2.518;2023-07-29T00:21:14;5.00;;;2.95;;
48859;SDS011;34679;51.436;-2.518;2023-07-29T00:23:40;5.80;;;2.42;;
48859;SDS011;34679;51.436;-2.518;2023-07-29T00:26:06;5.38;;;2.35;;
48859;SDS011;34679;51.436;-2.518;2023-07-29T00:28:31;7.80;;;2.53;;
48859;SDS011;34679;51.436;-2.518;2023-07-29T00:30:57;6.90;;;2.35;;
48859;SDS011;34679;51.436;-2.518;2023-07-29T00:33:23;6.85;;;2.45;;
48859;SDS011;34679;51.436;-2.518;2023-07-29T00:35:48;6.45;;;2.40;;
48859;SDS011;34679;51.436;-2.518;2023-07-29T00:38:14;4.93;;;2.20;;
48859;SDS011;34679;51.436;-2.518;2023-07-29T00:40:40;5.13;;;2.50;;
48859;SDS011;34679;51.436;-2.518;2023-07-29T00:43:06;5.80;;;2.75;;
48859;SDS011;34679;51.436;-2.518;2023-07-29T00:45:32;5.60;;;2.72;;
48859;SDS011;34679;51.436;-2.518;2023-07-29T00:47:58;6.18;;;2.17;;
48859;SDS011;34679;51.436;-2.518;2023-07-29T00:50:25;6.25;;;2.38;;
48859;SDS011;34679;51.436;-2.518;2023-07-29T00:52:53;7.35;;;2.80;;
48859;SDS011;34679;51.436;-2.518;2023-07-29T00:55:19;8.25;;;2.42;;
48859;SDS011;34679;51.436;-2.518;2023-07-29T00:57:45;5.97;;;2.50;;
48859;SDS011;34679;51.436;-2.518;2023-07-29T01:00:13;10.68;;;2.33;;
48859;SDS011;34679;51.436;-2.518;2023-07-29T01:02:40;7.55;;;3.08;;
48859;SDS011;34679;51.436;-2.518;2023-07-29T01:05:07;7.88;;;2.90;;
48859;SDS011;34679;51.436;-2.518;2023-07-29T01:07:36;7.85;;;2.78;;
48859;SDS011;34679;51.436;-2.518;2023-07-29T01:13:42;8.05;;;2.58;;
48859;SDS011;34679;51.436;-2.518;2023-07-29T01:16:17;8.13;;;3.00;;
48859;SDS011;34679;51.436;-2.518;2023-07-29T01:18:54;9.25;;;3.05;;
48859;SDS011;34679;51.436;-2.518;2023-07-29T01:21:20;9.73;;;2.90;;
48859;SDS011;34679;51.436;-2.518;2023-07-29T01:23:47;8.02;;;2.90;;
48859;SDS011;34679;51.436;-2.518;2023-07-29T01:26:12;7.38;;;2.88;;
48859;SDS011;34679;51.436;-2.518;2023-07-29T01:28:38;12.07;;;3.15;;
48859;SDS011;34679;51.436;-2.518;2023-07-29T01:31:16;12.02;;;3.42;;
48859;SDS011;34679;51.436;-2.518;2023-07-29T01:33:59;10.15;;;3.40;;
48859;SDS011;34679;51.436;-2.518;2023-07-29T01:36:50;11.35;;;3.17;;
48859;SDS011;34679;51.436;-2.518;2023-07-29T01:39:17;6.35;;;3.17;;
48859;SDS011;34679;51.436;-2.518;2023-07-29T01:41:47;5.53;;;3.00;;
48859;SDS011;34679;51.436;-2.518;2023-07-29T01:44:13;9.43;;;3.22;;
48859;SDS011;34679;51.436;-2.518;2023-07-29T01:46:39;8.10;;;2.85;;
48859;SDS011;34679;51.436;-2.518;2023-07-29T01:49:05;9.52;;;2.97;;
48859;SDS011;34679;51.436;-2.518;2023-07-29T01:51:31;7.68;;;3.00;;
48859;SDS011;34679;51.436;-2.518;2023-07-29T01:53:56;5.57;;;3.03;;
48859;SDS011;34679;51.436;-2.518;2023-07-29T01:56:24;5.68;;;2.60;;
48859;SDS011;34679;51.436;-2.518;2023-07-29T01:58:49;4.97;;;2.38;;
48859;SDS011;34679;51.436;-2.518;2023-07-29T02:01:15;7.28;;;2.60;;
48859;SDS011;34679;51.436;-2.518;2023-07-29T02:03:41;7.60;;;2.80;;
48859;SDS011;34679;51.436;-2.518;2023-07-29T02:06:07;8.13;;;2.60;;
48859;SDS011;34679;51.436;-2.518;2023-07-29T02:08:32;9.73;;;2.40;;
48859;SDS011;34679;51.436;-2.518;2023-07-29T02:10:58;11.93;;;3.45;;
48859;SDS011;34679;51.436;-2.518;2023-07-29T02:13:23;4.85;;;2.20;;
48859;SDS011;34679;51.436;-2.518;2023-07-29T02:15:49;7.63;;;2.50;;
48859;SDS011;34679;51.436;-2.518;2023-07-29T02:18:15;8.15;;;2.70;;
48859;SDS011;34679;51.436;-2.518;2023-07-29T02:20:40;8.20;;;2.70;;
48859;SDS011;34679;51.436;-2.518;2023-07-29T02:23:11;6.10;;;2.25;;
48859;SDS011;34679;51.436;-2.518;2023-07-29T02:25:36;8.35;;;2.00;;
48859;SDS011;34679;51.436;-2.518;2023-07-29T02:28:02;8.23;;;2.33;;
48859;SDS011;34679;51.436;-2.518;2023-07-29T02:30:29;6.90;;;2.38;;
48859;SDS011;34679;51.436;-2.518;2023-07-29T02:32:54;7.07;;;2.63;;
48859;SDS011;34679;51.436;-2.518;2023-07-29T02:35:20;4.78;;;2.33;;
48859;SDS011;34679;51.436;-2.518;2023-07-29T02:37:47;7.93;;;2.90;;
48859;SDS011;34679;51.436;-2.518;2023-07-29T02:40:12;9.10;;;2.58;;
48859;SDS011;34679;51.436;-2.518;2023-07-29T02:42:38;5.05;;;1.92;;
48859;SDS011;34679;51.436;-2.518;2023-07-29T02:45:04;11.32;;;4.10;;
48859;SDS011;34679;51.436;-2.518;2023-07-29T02:47:30;4.28;;;2.58;;
48859;SDS011;34679;51.436;-2.518;2023-07-29T02:49:56;5.35;;;2.03;;
48859;SDS011;34679;51.436;-2.518;2023-07-29T02:52:21;10.82;;;3.15;;
48859;SDS011;34679;51.436;-2.518;2023-07-29T02:54:47;4.32;;;2.30;;
48859;SDS011;34679;51.436;-2.518;2023-07-29T02:57:13;4.70;;;2.65;;
48859;SDS011;34679;51.436;-2.518;2023-07-29T02:59:39;6.80;;;2.40;;
48859;SDS011;34679;51.436;-2.518;2023-07-29T03:02:05;7.55;;;2.83;;
48859;SDS011;34679;51.436;-2.518;2023-07-29T03:04:31;8.15;;;3.15;;
48859;SDS011;34679;51.436;-2.518;2023-07-29T03:06:56;5.85;;;2.40;;
48859;SDS011;34679;51.436;-2.518;2023-07-29T03:09:23;6.70;;;2.90;;
48859;SDS011;34679;51.436;-2.518;2023-07-29T03:11:49;6.07;;;3.10;;
48859;SDS011;34679;51.436;-2.518;2023-07-29T03:14:15;6.30;;;2.70;;
48859;SDS011;34679;51.436;-2.518;2023-07-29T03:16:41;9.57;;;2.38;;
48859;SDS011;34679;51.436;-2.518;2023-07-29T03:19:07;6.05;;;2.80;;
48859;SDS011;34679;51.436;-2.518;2023-07-29T03:21:32;6.35;;;2.50;;
48859;SDS011;34679;51.436;-2.518;2023-07-29T03:23:58;6.82;;;2.65;;
48859;SDS011;34679;51.436;-2.518;2023-07-29T03:26:24;4.65;;;2.30;;
48859;SDS011;34679;51.436;-2.518;2023-07-29T03:28:50;4.53;;;2.50;;
48859;SDS011;34679;51.436;-2.518;2023-07-29T03:31:16;6.95;;;2.80;;
48859;SDS011;34679;51.436;-2.518;2023-07-29T03:33:41;7.80;;;2.63;;
48859;SDS011;34679;51.436;-2.518;2023-07-29T03:36:07;5.28;;;2.55;;
48859;SDS011;34679;51.436;-2.518;2023-07-29T03:38:33;8.55;;;2.65;;
48859;SDS011;34679;51.436;-2.518;2023-07-29T03:41:00;6.68;;;2.75;;
48859;SDS011;34679;51.436;-2.518;2023-07-29T03:43:27;11.88;;;2.80;;
48859;SDS011;34679;51.436;-2.518;2023-07-29T03:45:54;4.90;;;2.55;;
48859;SDS011;34679;51.436;-2.518;2023-07-29T03:48:20;12.15;;;3.20;;
48859;SDS011;34679;51.436;-2.518;2023-07-29T03:50:46;6.15;;;2.90;;
48859;SDS011;34679;51.436;-2.518;2023-07-29T03:53:11;4.68;;;2.53;;
48859;SDS011;34679;51.436;-2.518;2023-07-29T03:55:37;4.10;;;2.53;;
48859;SDS011;34679;51.436;-2.518;2023-07-29T03:58:03;7.15;;;3.70;;
48859;SDS011;34679;51.436;-2.518;2023-07-29T04:00:28;5.78;;;2.70;;
48859;SDS011;34679;51.436;-2.518;2023-07-29T04:02:54;5.28;;;2.75;;
48859;SDS011;34679;51.436;-2.518;2023-07-29T04:05:20;7.05;;;2.53;;
48859;SDS011;34679;51.436;-2.518;2023-07-29T04:07:46;3.97;;;2.50;;
48859;SDS011;34679;51.436;-2.518;2023-07-29T04:10:11;6.18;;;2.70;;
48859;SDS011;34679;51.436;-2.518;2023-07-29T04:12:38;7.15;;;2.58;;
48859;SDS011;34679;51.436;-2.518;2023-07-29T04:15:03;7.05;;;2.78;;
48859;SDS011;34679;51.436;-2.518;2023-07-29T04:17:30;9.20;;;3.90;;
48859;SDS011;34679;51.436;-2.518;2023-07-29T04:19:55;11.00;;;3.33;;
48859;SDS011;34679;51.436;-2.518;2023-07-29T04:22:21;8.25;;;3.17;;
48859;SDS011;34679;51.436;-2.518;2023-07-29T04:24:47;5.60;;;2.92;;
48859;SDS011;34679;51.436;-2.518;2023-07-29T04:27:12;7.70;;;2.50;;
48859;SDS011;34679;51.436;-2.518;2023-07-29T04:29:38;7.40;;;2.63;;
48859;SDS011;34679;51.436;-2.518;2023-07-29T04:32:04;9.75;;;2.80;;
48859;SDS011;34679;51.436;-2.518;2023-07-29T04:34:30;10.52;;;2.95;;
48859;SDS011;34679;51.436;-2.518;2023-07-29T04:36:57;7.22;;;2.58;;
48859;SDS011;34679;51.436;-2.518;2023-07-29T04:39:22;6.22;;;2.92;;
48859;SDS011;34679;51.436;-2.518;2023-07-29T04:41:48;7.97;;;2.78;;
48859;SDS011;34679;51.436;-2.518;2023-07-29T04:44:14;6.47;;;3.47;;
48859;SDS011;34679;51.436;-2.518;2023-07-29T04:46:39;5.80;;;3.50;;
48859;SDS011;34679;51.436;-2.518;2023-07-29T04:49:05;2.97;;;2.20;;
48859;SDS011;34679;51.436;-2.518;2023-07-29T04:51:31;3.85;;;2.50;;
48859;SDS011;34679;51.436;-2.518;2023-07-29T04:53:57;7.88;;;2.28;;
48859;SDS011;34679;51.436;-2.518;2023-07-29T04:56:23;6.93;;;2.30;;
48859;SDS011;34679;51.436;-2.518;2023-07-29T04:58:49;9.25;;;2.35;;
48859;SDS011;34679;51.436;-2.518;2023-07-29T05:01:15;9.75;;;2.22;;
48859;SDS011;34679;51.436;-2.518;2023-07-29T05:03:40;10.63;;;3.03;;
48859;SDS011;34679;51.436;-2.518;2023-07-29T05:06:06;7.72;;;2.20;;
48859;SDS011;34679;51.436;-2.518;2023-07-29T05:08:32;13.02;;;2.30;;
48859;SDS011;34679;51.436;-2.518;2023-07-29T05:10:57;5.68;;;2.00;;
48859;SDS011;34679;51.436;-2.518;2023-07-29T05:13:23;5.07;;;2.65;;
48859;SDS011;34679;51.436;-2.518;2023-07-29T05:15:49;10.30;;;2.53;;
48859;SDS011;34679;51.436;-2.518;2023-07-29T05:18:15;8.65;;;2.10;;
48859;SDS011;34679;51.436;-2.518;2023-07-29T05:20:41;7.57;;;2.80;;
48859;SDS011;34679;51.436;-2.518;2023-07-29T05:23:07;8.98;;;2.40;;
48859;SDS011;34679;51.436;-2.518;2023-07-29T05:25:33;8.43;;;2.45;;
48859;SDS011;34679;51.436;-2.518;2023-07-29T05:28:01;8.98;;;2.38;;
48859;SDS011;34679;51.436;-2.518;2023-07-29T05:30:28;6.32;;;2.08;;
48859;SDS011;34679;51.436;-2.518;2023-07-29T05:32:56;5.38;;;3.63;;
48859;SDS011;34679;51.436;-2.518;2023-07-29T05:35:22;5.60;;;2.45;;
48859;SDS011;34679;51.436;-2.518;2023-07-29T05:37:48;4.63;;;1.80;;
48859;SDS011;34679;51.436;-2.518;2023-07-29T05:40:14;5.18;;;1.58;;
48859;SDS011;34679;51.436;-2.518;2023-07-29T05:42:39;3.53;;;1.42;;
48859;SDS011;34679;51.436;-2.518;2023-07-29T05:45:05;9.38;;;1.90;;
48859;SDS011;34679;51.436;-2.518;2023-07-29T05:47:32;5.55;;;1.67;;
48859;SDS011;34679;51.436;-2.518;2023-07-29T05:49:57;4.35;;;1.88;;
48859;SDS011;34679;51.436;-2.518;2023-07-29T05:52:23;4.10;;;1.40;;
48859;SDS011;34679;51.436;-2.518;2023-07-29T05:54:49;6.82;;;1.83;;
48859;SDS011;34679;51.436;-2.518;2023-07-29T05:57:14;5.45;;;1.70;;
48859;SDS011;34679;51.436;-2.518;2023-07-29T05:59:40;6.03;;;2.15;;
48859;SDS011;34679;51.436;-2.518;2023-07-29T06:02:05;6.72;;;2.15;;
48859;SDS011;34679;51.436;-2.518;2023-07-29T06:04:31;3.80;;;1.70;;
48859;SDS011;34679;51.436;-2.518;2023-07-29T06:06:57;7.25;;;1.60;;
48859;SDS011;34679;51.436;-2.518;2023-07-29T06:09:22;7.80;;;2.50;;
48859;SDS011;34679;51.436;-2.518;2023-07-29T06:11:50;4.68;;;1.65;;
48859;SDS011;34679;51.436;-2.518;2023-07-29T06:14:16;9.02;;;1.90;;
48859;SDS011;34679;51.436;-2.518;2023-07-29T06:16:42;9.05;;;2.35;;
48859;SDS011;34679;51.436;-2.518;2023-07-29T06:19:07;4.68;;;1.70;;
48859;SDS011;34679;51.436;-2.518;2023-07-29T06:21:34;9.70;;;1.60;;
48859;SDS011;34679;51.436;-2.518;2023-07-29T06:24:00;7.53;;;1.90;;
48859;SDS011;34679;51.436;-2.518;2023-07-29T06:26:26;3.28;;;1.67;;
48859;SDS011;34679;51.436;-2.518;2023-07-29T06:28:52;7.40;;;2.10;;
48859;SDS011;34679;51.436;-2.518;2023-07-29T06:31:19;11.18;;;1.98;;
48859;SDS011;34679;51.436;-2.518;2023-07-29T06:33:44;5.95;;;1.70;;
48859;SDS011;34679;51.436;-2.518;2023-07-29T06:36:10;7.68;;;2.22;;
48859;SDS011;34679;51.436;-2.518;2023-07-29T06:38:36;4.50;;;1.45;;
48859;SDS011;34679;51.436;-2.518;2023-07-29T06:41:03;10.32;;;1.50;;
48859;SDS011;34679;51.436;-2.518;2023-07-29T06:43:29;5.93;;;1.52;;
48859;SDS011;34679;51.436;-2.518;2023-07-29T06:45:55;4.22;;;1.65;;
48859;SDS011;34679;51.436;-2.518;2023-07-29T06:48:21;5.57;;;1.42;;
48859;SDS011;34679;51.436;-2.518;2023-07-29T06:50:46;5.30;;;1.50;;
48859;SDS011;34679;51.436;-2.518;2023-07-29T06:53:12;7.30;;;2.03;;
48859;SDS011;34679;51.436;-2.518;2023-07-29T06:55:38;5.43;;;1.55;;
48859;SDS011;34679;51.436;-2.518;2023-07-29T06:58:04;5.88;;;1.90;;
48859;SDS011;34679;51.436;-2.518;2023-07-29T07:00:30;7.20;;;2.03;;
48859;SDS011;34679;51.436;-2.518;2023-07-29T07:02:55;4.75;;;1.45;;
48859;SDS011;34679;51.436;-2.518;2023-07-29T07:05:21;7.30;;;1.85;;
48859;SDS011;34679;51.436;-2.518;2023-07-29T07:07:47;5.55;;;1.50;;
48859;SDS011;34679;51.436;-2.518;2023-07-29T07:10:13;8.73;;;1.63;;
48859;SDS011;34679;51.436;-2.518;2023-07-29T07:12:39;7.88;;;1.75;;
48859;SDS011;34679;51.436;-2.518;2023-07-29T07:15:05;4.03;;;1.30;;
48859;SDS011;34679;51.436;-2.518;2023-07-29T07:17:31;6.20;;;1.48;;
48859;SDS011;34679;51.436;-2.518;2023-07-29T07:19:56;5.15;;;1.65;;
48859;SDS011;34679;51.436;-2.518;2023-07-29T07:22:22;4.80;;;1.50;;
48859;SDS011;34679;51.436;-2.518;2023-07-29T07:24:48;6.20;;;1.77;;
48859;SDS011;34679;51.436;-2.518;2023-07-29T07:27:14;7.97;;;1.52;;
48859;SDS011;34679;51.436;-2.518;2023-07-29T07:29:40;5.30;;;1.55;;
48859;SDS011;34679;51.436;-2.518;2023-07-29T07:32:05;9.45;;;1.73;;
48859;SDS011;34679;51.436;-2.518;2023-07-29T07:34:31;5.72;;;1.60;;
48859;SDS011;34679;51.436;-2.518;2023-07-29T07:36:58;4.25;;;1.45;;
48859;SDS011;34679;51.436;-2.518;2023-07-29T07:39:24;8.10;;;1.80;;
48859;SDS011;34679;51.436;-2.518;2023-07-29T07:41:50;8.45;;;1.67;;
48859;SDS011;34679;51.436;-2.518;2023-07-29T07:44:15;5.97;;;1.70;;
48859;SDS011;34679;51.436;-2.518;2023-07-29T07:46:43;6.43;;;1.50;;
48859;SDS011;34679;51.436;-2.518;2023-07-29T07:49:09;4.47;;;1.83;;
48859;SDS011;34679;51.436;-2.518;2023-07-29T07:51:35;8.40;;;2.25;;
48859;SDS011;34679;51.436;-2.518;2023-07-29T07:54:00;7.88;;;1.75;;
48859;SDS011;34679;51.436;-2.518;2023-07-29T07:56:26;8.40;;;1.80;;
48859;SDS011;34679;51.436;-2.518;2023-07-29T07:58:52;5.63;;;2.03;;
48859;SDS011;34679;51.436;-2.518;2023-07-29T08:01:17;9.20;;;1.98;;
48859;SDS011;34679;51.436;-2.518;2023-07-29T08:03:43;9.27;;;1.65;;
48859;SDS011;34679;51.436;-2.518;2023-07-29T08:06:09;8.98;;;1.70;;
48859;SDS011;34679;51.436;-2.518;2023-07-29T08:08:34;9.57;;;1.42;;
48859;SDS011;34679;51.436;-2.518;2023-07-29T08:11:00;5.05;;;1.90;;
48859;SDS011;34679;51.436;-2.518;2023-07-29T08:13:26;5.40;;;1.60;;
48859;SDS011;34679;51.436;-2.518;2023-07-29T08:15:52;5.68;;;1.65;;
48859;SDS011;34679;51.436;-2.518;2023-07-29T08:18:18;5.80;;;2.42;;
48859;SDS011;34679;51.436;-2.518;2023-07-29T08:20:54;11.07;;;1.55;;
48859;SDS011;34679;51.436;-2.518;2023-07-29T08:23:20;6.47;;;1.73;;
48859;SDS011;34679;51.436;-2.518;2023-07-29T08:25:56;3.45;;;1.30;;
48859;SDS011;34679;51.436;-2.518;2023-07-29T08:28:45;7.57;;;1.33;;
48859;SDS011;34679;51.436;-2.518;2023-07-29T08:31:10;6.03;;;1.55;;
48859;SDS011;34679;51.436;-2.518;2023-07-29T08:33:36;4.68;;;1.60;;
48859;SDS011;34679;51.436;-2.518;2023-07-29T08:36:02;5.55;;;1.60;;
48859;SDS011;34679;51.436;-2.518;2023-07-29T08:38:28;8.82;;;1.80;;
48859;SDS011;34679;51.436;-2.518;2023-07-29T08:43:24;4.85;;;1.60;;
48859;SDS011;34679;51.436;-2.518;2023-07-29T08:45:55;8.30;;;1.88;;
48859;SDS011;34679;51.436;-2.518;2023-07-29T08:48:23;6.13;;;1.58;;
48859;SDS011;34679;51.436;-2.518;2023-07-29T08:51:01;10.35;;;1.90;;
48859;SDS011;34679;51.436;-2.518;2023-07-29T08:53:29;8.35;;;1.70;;
48859;SDS011;34679;51.436;-2.518;2023-07-29T08:55:56;5.32;;;1.60;;
48859;SDS011;34679;51.436;-2.518;2023-07-29T08:58:23;3.60;;;1.42;;
48859;SDS011;34679;51.436;-2.518;2023-07-29T09:00:49;4.05;;;1.52;;
48859;SDS011;34679;51.436;-2.518;2023-07-29T09:03:15;7.93;;;2.08;;
48859;SDS011;34679;51.436;-2.518;2023-07-29T09:05:41;7.35;;;1.58;;
48859;SDS011;34679;51.436;-2.518;2023-07-29T09:08:07;4.90;;;1.58;;
48859;SDS011;34679;51.436;-2.518;2023-07-29T09:10:36;8.77;;;1.42;;
48859;SDS011;34679;51.436;-2.518;2023-07-29T09:13:03;7.68;;;1.70;;
48859;SDS011;34679;51.436;-2.518;2023-07-29T09:15:30;4.97;;;1.40;;
48859;SDS011;34679;51.436;-2.518;2023-07-29T09:17:57;9.05;;;2.28;;
48859;SDS011;34679;51.436;-2.518;2023-07-29T09:20:27;5.60;;;1.40;;
48859;SDS011;34679;51.436;-2.518;2023-07-29T09:22:53;6.82;;;1.58;;
48859;SDS011;34679;51.436;-2.518;2023-07-29T09:25:24;10.98;;;1.80;;
48859;SDS011;34679;51.436;-2.518;2023-07-29T09:27:50;7.00;;;1.70;;
48859;SDS011;34679;51.436;-2.518;2023-07-29T09:30:16;9.15;;;1.90;;
48859;SDS011;34679;51.436;-2.518;2023-07-29T09:32:43;6.28;;;1.60;;
48859;SDS011;34679;51.436;-2.518;2023-07-29T09:35:11;8.98;;;1.75;;
48859;SDS011;34679;51.436;-2.518;2023-07-29T09:37:38;8.02;;;1.40;;
48859;SDS011;34679;51.436;-2.518;2023-07-29T09:40:05;7.40;;;1.73;;
48859;SDS011;34679;51.436;-2.518;2023-07-29T09:42:31;9.23;;;1.70;;
48859;SDS011;34679;51.436;-2.518;2023-07-29T09:44:57;7.97;;;1.58;;
48859;SDS011;34679;51.436;-2.518;2023-07-29T09:47:24;9.18;;;1.85;;
48859;SDS011;34679;51.436;-2.518;2023-07-29T09:49:51;8.38;;;2.35;;
48859;SDS011;34679;51.436;-2.518;2023-07-29T09:52:17;9.40;;;2.00;;
48859;SDS011;34679;51.436;-2.518;2023-07-29T09:54:44;5.55;;;1.30;;
48859;SDS011;34679;51.436;-2.518;2023-07-29T09:57:11;9.25;;;1.70;;
48859;SDS011;34679;51.436;-2.518;2023-07-29T09:59:39;11.75;;;2.03;;
48859;SDS011;34679;51.436;-2.518;2023-07-29T10:02:07;6.80;;;1.48;;
48859;SDS011;34679;51.436;-2.518;2023-07-29T10:04:43;7.82;;;1.67;;
48859;SDS011;34679;51.436;-2.518;2023-07-29T10:07:10;7.97;;;1.65;;
48859;SDS011;34679;51.436;-2.518;2023-07-29T10:09:37;5.95;;;1.23;;
48859;SDS011;34679;51.436;-2.518;2023-07-29T10:12:05;12.55;;;1.80;;
48859;SDS011;34679;51.436;-2.518;2023-07-29T10:14:32;9.52;;;1.42;;
48859;SDS011;34679;51.436;-2.518;2023-07-29T10:16:58;8.50;;;1.50;;
48859;SDS011;34679;51.436;-2.518;2023-07-29T10:19:24;10.07;;;1.55;;
48859;SDS011;34679;51.436;-2.518;2023-07-29T10:21:51;9.85;;;1.52;;
48859;SDS011;34679;51.436;-2.518;2023-07-29T10:24:22;9.80;;;1.90;;
48859;SDS011;34679;51.436;-2.518;2023-07-29T10:26:54;10.50;;;2.10;;
48859;SDS011;34679;51.436;-2.518;2023-07-29T10:29:24;8.43;;;1.75;;
48859;SDS011;34679;51.436;-2.518;2023-07-29T10:31:53;9.50;;;1.40;;
48859;SDS011;34679;51.436;-2.518;2023-07-29T10:34:22;6.72;;;1.60;;
48859;SDS011;34679;51.436;-2.518;2023-07-29T10:36:49;8.77;;;1.80;;
48859;SDS011;34679;51.436;-2.518;2023-07-29T10:39:16;7.20;;;1.55;;
48859;SDS011;34679;51.436;-2.518;2023-07-29T10:41:58;12.05;;;1.65;;
48859;SDS011;34679;51.436;-2.518;2023-07-29T10:49:39;10.27;;;1.45;;
48859;SDS011;34679;51.436;-2.518;2023-07-29T10:52:12;8.43;;;1.52;;
48859;SDS011;34679;51.436;-2.518;2023-07-29T10:54:43;9.90;;;1.55;;
48859;SDS011;34679;51.436;-2.518;2023-07-29T10:57:30;10.93;;;1.63;;
48859;SDS011;34679;51.436;-2.518;2023-07-29T10:59:57;10.25;;;2.03;;
48859;SDS011;34679;51.436;-2.518;2023-07-29T11:02:28;10.13;;;1.75;;
48859;SDS011;34679;51.436;-2.518;2023-07-29T11:04:55;7.90;;;1.48;;
48859;SDS011;34679;51.436;-2.518;2023-07-29T11:07:30;12.32;;;1.60;;
48859;SDS011;34679;51.436;-2.518;2023-07-29T11:10:07;10.15;;;1.70;;
48859;SDS011;34679;51.436;-2.518;2023-07-29T11:17:45;14.50;;;2.72;;
48859;SDS011;34679;51.436;-2.518;2023-07-29T11:20:11;20.70;;;3.47;;
48859;SDS011;34679;51.436;-2.518;2023-07-29T11:22:38;16.20;;;2.67;;
48859;SDS011;34679;51.436;-2.518;2023-07-29T11:25:04;13.70;;;2.25;;
48859;SDS011;34679;51.436;-2.518;2023-07-29T11:27:32;17.95;;;3.00;;
48859;SDS011;34679;51.436;-2.518;2023-07-29T11:29:58;9.05;;;2.05;;
48859;SDS011;34679;51.436;-2.518;2023-07-29T11:32:31;11.82;;;2.15;;
48859;SDS011;34679;51.436;-2.518;2023-07-29T11:35:01;9.02;;;2.72;;
48859;SDS011;34679;51.436;-2.518;2023-07-29T11:37:32;9.48;;;1.77;;
48859;SDS011;34679;51.436;-2.518;2023-07-29T11:39:59;13.48;;;2.28;;
48859;SDS011;34679;51.436;-2.518;2023-07-29T11:42:25;10.35;;;1.50;;
48859;SDS011;34679;51.436;-2.518;2023-07-29T11:44:51;11.88;;;2.13;;
48859;SDS011;34679;51.436;-2.518;2023-07-29T11:47:17;7.40;;;1.58;;
48859;SDS011;34679;51.436;-2.518;2023-07-29T11:49:43;10.93;;;1.95;;
48859;SDS011;34679;51.436;-2.518;2023-07-29T11:52:09;7.97;;;1.80;;
48859;SDS011;34679;51.436;-2.518;2023-07-29T11:54:36;8.40;;;1.90;;
48859;SDS011;34679;51.436;-2.518;2023-07-29T11:57:03;5.80;;;2.50;;
48859;SDS011;34679;51.436;-2.518;2023-07-29T11:59:34;8.05;;;1.88;;
48859;SDS011;34679;51.436;-2.518;2023-07-29T12:02:01;6.18;;;1.50;;
48859;SDS011;34679;51.436;-2.518;2023-07-29T12:04:30;6.45;;;1.15;;
48859;SDS011;34679;51.436;-2.518;2023-07-29T12:06:56;6.95;;;1.52;;
48859;SDS011;34679;51.436;-2.518;2023-07-29T12:09:23;5.05;;;1.30;;
48859;SDS011;34679;51.436;-2.518;2023-07-29T12:11:49;7.38;;;1.38;;
48859;SDS011;34679;51.436;-2.518;2023-07-29T12:14:16;8.68;;;1.60;;
48859;SDS011;34679;51.436;-2.518;2023-07-29T12:16:47;12.20;;;1.98;;
48859;SDS011;34679;51.436;-2.518;2023-07-29T12:19:14;6.82;;;1.35;;
48859;SDS011;34679;51.436;-2.518;2023-07-29T12:21:41;8.13;;;1.70;;
48859;SDS011;34679;51.436;-2.518;2023-07-29T12:24:07;6.30;;;1.33;;
48859;SDS011;34679;51.436;-2.518;2023-07-29T12:26:33;11.82;;;1.55;;
48859;SDS011;34679;51.436;-2.518;2023-07-29T12:29:10;7.53;;;1.42;;
48859;SDS011;34679;51.436;-2.518;2023-07-29T12:31:44;10.23;;;2.33;;
48859;SDS011;34679;51.436;-2.518;2023-07-29T12:34:20;11.40;;;2.60;;
48859;SDS011;34679;51.436;-2.518;2023-07-29T12:36:47;7.40;;;1.15;;
48859;SDS011;34679;51.436;-2.518;2023-07-29T12:39:25;4.03;;;1.33;;
48859;SDS011;34679;51.436;-2.518;2023-07-29T12:41:52;6.78;;;1.90;;
48859;SDS011;34679;51.436;-2.518;2023-07-29T12:44:19;14.98;;;1.85;;
48859;SDS011;34679;51.436;-2.518;2023-07-29T12:46:45;10.32;;;2.33;;
48859;SDS011;34679;51.436;-2.518;2023-07-29T12:49:11;6.63;;;1.60;;
48859;SDS011;34679;51.436;-2.518;2023-07-29T12:51:37;8.15;;;1.90;;
48859;SDS011;34679;51.436;-2.518;2023-07-29T12:54:03;15.18;;;2.03;;
48859;SDS011;34679;51.436;-2.518;2023-07-29T12:56:32;7.03;;;2.08;;
48859;SDS011;34679;51.436;-2.518;2023-07-29T12:58:59;11.15;;;2.80;;
48859;SDS011;34679;51.436;-2.518;2023-07-29T13:01:26;13.00;;;1.75;;
48859;SDS011;34679;51.436;-2.518;2023-07-29T13:03:52;7.70;;;1.42;;
48859;SDS011;34679;51.436;-2.518;2023-07-29T13:06:18;8.02;;;1.95;;
48859;SDS011;34679;51.436;-2.518;2023-07-29T13:08:45;11.23;;;1.67;;
48859;SDS011;34679;51.436;-2.518;2023-07-29T13:11:10;8.75;;;1.63;;
48859;SDS011;34679;51.436;-2.518;2023-07-29T13:13:36;9.25;;;1.60;;
48859;SDS011;34679;51.436;-2.518;2023-07-29T13:16:02;8.93;;;1.63;;
48859;SDS011;34679;51.436;-2.518;2023-07-29T13:18:28;9.15;;;1.98;;
48859;SDS011;34679;51.436;-2.518;2023-07-29T13:20:54;11.55;;;1.85;;
48859;SDS011;34679;51.436;-2.518;2023-07-29T13:23:20;11.55;;;1.73;;
48859;SDS011;34679;51.436;-2.518;2023-07-29T13:25:46;14.77;;;2.28;;
48859;SDS011;34679;51.436;-2.518;2023-07-29T13:28:12;14.80;;;2.20;;
48859;SDS011;34679;51.436;-2.518;2023-07-29T13:30:41;4.53;;;1.40;;
48859;SDS011;34679;51.436;-2.518;2023-07-29T13:33:07;4.22;;;1.20;;
48859;SDS011;34679;51.436;-2.518;2023-07-29T13:35:33;7.75;;;2.05;;
48859;SDS011;34679;51.436;-2.518;2023-07-29T13:37:59;8.35;;;1.20;;
48859;SDS011;34679;51.436;-2.518;2023-07-29T13:40:26;3.95;;;0.77;;
48859;SDS011;34679;51.436;-2.518;2023-07-29T13:42:51;5.05;;;0.95;;
48859;SDS011;34679;51.436;-2.518;2023-07-29T13:45:17;4.72;;;0.95;;
48859;SDS011;34679;51.436;-2.518;2023-07-29T13:47:44;5.25;;;0.93;;
48859;SDS011;34679;51.436;-2.518;2023-07-29T13:50:09;8.65;;;1.15;;
48859;SDS011;34679;51.436;-2.518;2023-07-29T13:52:36;9.00;;;1.67;;
48859;SDS011;34679;51.436;-2.518;2023-07-29T13:55:02;6.28;;;1.17;;
48859;SDS011;34679;51.436;-2.518;2023-07-29T13:57:29;6.53;;;1.15;;
48859;SDS011;34679;51.436;-2.518;2023-07-29T13:59:54;7.07;;;1.30;;
48859;SDS011;34679;51.436;-2.518;2023-07-29T14:02:20;6.65;;;1.38;;
48859;SDS011;34679;51.436;-2.518;2023-07-29T14:04:46;4.68;;;1.15;;
48859;SDS011;34679;51.436;-2.518;2023-07-29T14:07:11;5.53;;;1.40;;
48859;SDS011;34679;51.436;-2.518;2023-07-29T14:09:37;7.10;;;1.88;;
48859;SDS011;34679;51.436;-2.518;2023-07-29T14:12:03;5.88;;;1.33;;
48859;SDS011;34679;51.436;-2.518;2023-07-29T14:14:30;7.20;;;1.65;;
48859;SDS011;34679;51.436;-2.518;2023-07-29T14:16:56;7.68;;;1.63;;
48859;SDS011;34679;51.436;-2.518;2023-07-29T14:19:22;9.20;;;1.50;;
48859;SDS011;34679;51.436;-2.518;2023-07-29T14:21:48;8.85;;;1.58;;
48859;SDS011;34679;51.436;-2.518;2023-07-29T14:24:14;5.30;;;1.30;;
48859;SDS011;34679;51.436;-2.518;2023-07-29T14:26:40;7.07;;;1.55;;
48859;SDS011;34679;51.436;-2.518;2023-07-29T14:29:06;6.32;;;1.50;;
48859;SDS011;34679;51.436;-2.518;2023-07-29T14:31:32;9.10;;;1.42;;
48859;SDS011;34679;51.436;-2.518;2023-07-29T14:33:58;7.70;;;1.42;;
48859;SDS011;34679;51.436;-2.518;2023-07-29T14:36:24;7.03;;;1.60;;
48859;SDS011;34679;51.436;-2.518;2023-07-29T14:38:50;7.07;;;1.17;;
48859;SDS011;34679;51.436;-2.518;2023-07-29T14:41:16;8.85;;;1.25;;
48859;SDS011;34679;51.436;-2.518;2023-07-29T14:43:42;7.07;;;1.60;;
48859;SDS011;34679;51.436;-2.518;2023-07-29T14:46:08;5.85;;;1.80;;
48859;SDS011;34679;51.436;-2.518;2023-07-29T14:48:33;9.95;;;1.60;;